Libby, Montana
Current Conditions -  °F | °C
As of 11:10 AM on Tuesday 21 Oct 2014 (Local Time) from K65S Reporting Station
Overcast Overcast  
Wind Chill: 52°   Ceiling: 5000
Heat Index: 52°   Visibility: 10mi
Dew Point: 45°   Wind: 5mph
Humidity: 76%   Direction: 220°SW
Pressure: 29.84"   Gusts: NA
Location:  48.39°N, 115.56°W
Report Text: K65S 211710Z AUTO 22004KT 10SM OVC050 11/07 A2984 RMK AO2
Loading
Personal Weather Stations






























Interactive Weather Map
Tropical Storm Tracking
New forecast layout! Learn more

10-Day Weather Forecast

Advertisements
Track Severe Weather on mobile